createdAt,value
2022-09-21T00:01:11.344Z,100.00
2022-09-21T00:03:39.604Z,100.00
2022-09-21T00:06:09.610Z,100.00
2022-09-21T00:08:36.509Z,100.00
2022-09-21T00:11:05.540Z,100.00
2022-09-21T00:13:34.127Z,100.00
2022-09-21T00:16:01.194Z,100.00
2022-09-21T00:18:28.186Z,100.00
2022-09-21T00:20:54.994Z,100.00
2022-09-21T00:23:21.619Z,100.00
2022-09-21T00:25:48.224Z,100.00
2022-09-21T00:28:14.848Z,100.00
2022-09-21T00:30:41.657Z,100.00
2022-09-21T00:33:08.429Z,100.00
2022-09-21T00:35:35.498Z,100.00
2022-09-21T00:38:03.411Z,100.00
2022-09-21T00:40:32.005Z,100.00
2022-09-21T00:43:15.553Z,100.00
2022-09-21T00:45:44.780Z,100.00
2022-09-21T00:48:11.643Z,100.00
2022-09-21T00:50:42.719Z,100.00
2022-09-21T00:53:09.411Z,100.00
2022-09-21T00:55:46.580Z,100.00
2022-09-21T00:58:18.115Z,100.00
2022-09-21T01:00:44.759Z,100.00
2022-09-21T01:03:13.135Z,100.00
2022-09-21T01:05:39.751Z,100.00
2022-09-21T01:08:11.487Z,100.00
2022-09-21T01:11:08.817Z,100.00
2022-09-21T01:14:01.514Z,100.00
2022-09-21T01:16:34.181Z,100.00
2022-09-21T01:19:38.367Z,100.00
2022-09-21T01:22:30.847Z,100.00
2022-09-21T01:25:19.162Z,100.00
2022-09-21T01:28:20.918Z,100.00
2022-09-21T01:30:53.511Z,100.00
2022-09-21T01:33:32.376Z,100.00
2022-09-21T01:36:09.852Z,100.00
2022-09-21T01:38:43.876Z,100.00
2022-09-21T01:41:14.386Z,100.00
2022-09-21T01:43:46.190Z,100.00
2022-09-21T01:46:17.675Z,100.00
2022-09-21T01:48:54.753Z,100.00
2022-09-21T01:51:27.209Z,100.00
2022-09-21T01:53:59.368Z,100.00
2022-09-21T01:56:33.100Z,100.00
2022-09-21T01:59:27.374Z,100.00
2022-09-21T02:01:58.909Z,100.00
2022-09-21T02:04:25.793Z,100.00
2022-09-21T02:06:53.074Z,100.00
2022-09-21T02:09:20.402Z,100.00
2022-09-21T02:11:47.021Z,100.00
2022-09-21T02:14:18.188Z,100.00
2022-09-21T02:17:07.840Z,100.00
2022-09-21T02:19:38.617Z,100.00
2022-09-21T02:22:10.302Z,100.00
2022-09-21T02:24:47.561Z,100.00
2022-09-21T02:27:29.367Z,100.00
2022-09-21T02:30:02.360Z,100.00
2022-09-21T02:32:35.286Z,100.00
2022-09-21T02:35:13.185Z,100.00
2022-09-21T02:37:48.643Z,100.00
2022-09-21T02:40:30.755Z,100.00
2022-09-21T02:43:06.078Z,100.00
2022-09-21T02:45:41.684Z,100.00
2022-09-21T02:48:17.000Z,100.00
2022-09-21T02:50:53.792Z,100.00
2022-09-21T02:53:36.437Z,100.00
2022-09-21T02:56:07.330Z,100.00
2022-09-21T02:58:45.559Z,100.00
2022-09-21T03:01:15.264Z,100.00
2022-09-21T03:03:42.183Z,100.00
2022-09-21T03:06:08.866Z,100.00
2022-09-21T03:08:35.483Z,100.00
2022-09-21T03:11:02.933Z,100.00
2022-09-21T03:13:30.057Z,100.00
2022-09-21T03:16:05.958Z,100.00
2022-09-21T03:18:33.848Z,100.00
2022-09-21T03:21:01.170Z,100.00
2022-09-21T03:23:28.088Z,100.00
2022-09-21T03:25:57.147Z,100.00
2022-09-21T03:28:24.212Z,100.00
2022-09-21T03:30:52.077Z,100.00
2022-09-21T03:33:20.156Z,100.00
2022-09-21T03:35:48.902Z,100.00
2022-09-21T03:38:16.928Z,100.00
2022-09-21T03:40:50.225Z,100.00
2022-09-21T03:43:18.357Z,100.00
2022-09-21T03:45:45.724Z,100.00
2022-09-21T03:48:13.024Z,100.00
2022-09-21T03:50:39.889Z,100.00
2022-09-21T03:53:07.241Z,100.00
2022-09-21T03:55:34.912Z,100.00
2022-09-21T03:58:02.062Z,100.00
2022-09-21T04:00:29.211Z,100.00
2022-09-21T04:02:55.814Z,100.00
2022-09-21T04:05:23.116Z,100.00
2022-09-21T04:07:50.199Z,100.00
2022-09-21T04:10:19.711Z,100.00
2022-09-21T04:12:47.589Z,100.00
2022-09-21T04:15:16.498Z,100.00
2022-09-21T04:17:43.035Z,100.00
2022-09-21T04:20:09.939Z,100.00
2022-09-21T04:22:41.248Z,100.00
2022-09-21T04:25:11.120Z,100.00
2022-09-21T04:27:37.706Z,100.00
2022-09-21T04:30:05.330Z,100.00
2022-09-21T04:32:32.132Z,100.00
2022-09-21T04:34:58.688Z,100.00
2022-09-21T04:37:25.431Z,100.00
2022-09-21T04:39:52.023Z,100.00
2022-09-21T04:42:18.870Z,99.69
2022-09-21T04:44:45.414Z,92.56
2022-09-21T04:47:12.103Z,85.26
2022-09-21T04:49:38.858Z,79.46
2022-09-21T04:52:06.016Z,71.05
2022-09-21T04:54:32.962Z,65.09
2022-09-21T04:56:59.540Z,59.00
2022-09-21T04:59:26.273Z,52.76
2022-09-21T05:01:52.953Z,54.31
2022-09-21T05:04:19.544Z,55.67
2022-09-21T05:06:46.319Z,56.34
2022-09-21T05:09:31.065Z,55.93
2022-09-21T05:11:58.036Z,58.85
2022-09-21T05:14:24.622Z,61.54
2022-09-21T05:16:51.547Z,65.05
2022-09-21T05:19:18.175Z,65.24
2022-09-21T05:21:44.726Z,63.71
2022-09-21T05:24:11.362Z,64.58
2022-09-21T05:26:38.049Z,66.92
2022-09-21T05:29:05.179Z,68.89
2022-09-21T05:32:10.136Z,70.19
2022-09-21T05:34:55.468Z,71.24
2022-09-21T05:37:38.023Z,71.67
2022-09-21T05:40:06.346Z,72.36
2022-09-21T05:42:33.520Z,72.56
2022-09-21T05:45:00.390Z,67.96
2022-09-21T05:47:40.917Z,66.73
2022-09-21T05:50:19.786Z,66.98
2022-09-21T05:53:04.891Z,61.11
2022-09-21T05:55:47.367Z,59.08
2022-09-21T05:58:52.504Z,57.00
2022-09-21T06:01:25.282Z,55.95
2022-09-21T06:03:54.052Z,57.28
2022-09-21T06:06:21.111Z,57.74
2022-09-21T06:08:47.775Z,59.43
2022-09-21T06:11:14.669Z,59.87
2022-09-21T06:13:41.744Z,61.22
2022-09-21T06:16:08.487Z,60.48
2022-09-21T06:18:39.826Z,63.08
2022-09-21T06:21:08.217Z,61.75
2022-09-21T06:23:35.368Z,59.70
2022-09-21T06:26:02.083Z,59.86
2022-09-21T06:28:29.717Z,60.56
2022-09-21T06:30:58.383Z,63.40
2022-09-21T06:33:25.435Z,61.98
2022-09-21T06:36:00.263Z,61.70
2022-09-21T06:38:28.367Z,61.95
2022-09-21T06:40:55.555Z,60.43
2022-09-21T06:43:22.405Z,58.15
2022-09-21T06:45:57.279Z,54.98
2022-09-21T06:48:24.245Z,54.26
2022-09-21T06:50:51.554Z,54.19
2022-09-21T06:53:18.351Z,51.71
2022-09-21T06:55:45.182Z,52.99
2022-09-21T06:58:11.782Z,51.85
2022-09-21T07:00:38.607Z,50.12
2022-09-21T07:03:05.595Z,47.65
2022-09-21T07:05:34.031Z,46.86
2022-09-21T07:08:01.210Z,46.04
2022-09-21T07:10:28.535Z,48.51
2022-09-21T07:12:55.287Z,49.54
2022-09-21T07:15:21.892Z,50.93
2022-09-21T07:18:05.148Z,53.58
2022-09-21T07:20:32.447Z,53.45
2022-09-21T07:22:59.045Z,53.33
2022-09-21T07:25:25.641Z,52.27
2022-09-21T07:27:52.251Z,53.92
2022-09-21T07:30:19.031Z,53.29
2022-09-21T07:32:45.570Z,54.74
2022-09-21T07:35:12.432Z,57.62
2022-09-21T07:37:39.103Z,59.37
2022-09-21T07:40:06.439Z,62.19
2022-09-21T07:42:33.166Z,62.67
2022-09-21T07:45:06.656Z,60.78
2022-09-21T07:47:33.287Z,59.29
2022-09-21T07:50:18.264Z,58.76
2022-09-21T07:52:44.863Z,58.21
2022-09-21T07:55:11.411Z,58.23
2022-09-21T07:57:56.400Z,56.58
2022-09-21T08:00:23.201Z,54.49
2022-09-21T08:02:49.880Z,52.46
2022-09-21T08:05:16.530Z,52.75
2022-09-21T08:07:43.382Z,52.14
2022-09-21T08:10:10.245Z,50.96
2022-09-21T08:12:36.846Z,50.66
2022-09-21T08:15:03.879Z,48.36
2022-09-21T08:17:30.399Z,48.16
2022-09-21T08:19:57.075Z,47.47
2022-09-21T08:22:24.667Z,45.74
2022-09-21T08:24:52.557Z,43.39
2022-09-21T08:27:20.375Z,45.25
2022-09-21T08:29:46.973Z,45.63
2022-09-21T08:32:32.965Z,43.88
2022-09-21T08:35:00.419Z,41.15
2022-09-21T08:37:27.027Z,42.37
2022-09-21T08:39:53.599Z,43.83
2022-09-21T08:42:42.149Z,42.74
2022-09-21T08:45:16.974Z,44.98
2022-09-21T08:47:53.630Z,45.66
2022-09-21T08:50:28.063Z,47.11
2022-09-21T08:53:01.757Z,50.16
2022-09-21T08:55:28.386Z,48.79
2022-09-21T08:57:55.242Z,47.19
2022-09-21T09:00:21.941Z,42.69
2022-09-21T09:02:51.410Z,42.20
2022-09-21T09:05:33.226Z,42.08
2022-09-21T09:08:12.293Z,43.34
2022-09-21T09:10:47.820Z,44.68
2022-09-21T09:13:40.493Z,45.41
2022-09-21T09:16:33.172Z,45.11
2022-09-21T09:19:17.942Z,44.18
2022-09-21T09:21:45.786Z,43.64
2022-09-21T09:24:23.857Z,42.91
2022-09-21T09:27:00.303Z,44.69
2022-09-21T09:29:42.395Z,43.31
2022-09-21T09:32:14.610Z,43.12
2022-09-21T09:34:53.812Z,43.54
2022-09-21T09:37:29.206Z,42.30
2022-09-21T09:39:59.427Z,41.63
2022-09-21T09:42:32.256Z,40.41
2022-09-21T09:45:29.422Z,40.82
2022-09-21T09:48:18.401Z,41.13
2022-09-21T09:50:45.614Z,41.26
2022-09-21T09:53:25.202Z,40.47
2022-09-21T09:55:54.515Z,40.29
2022-09-21T09:58:45.248Z,41.45
2022-09-21T10:01:43.043Z,42.89
2022-09-21T10:04:17.740Z,39.40
2022-09-21T10:06:46.723Z,40.02
2022-09-21T10:09:28.128Z,40.96
2022-09-21T10:12:14.826Z,40.48
2022-09-21T10:14:49.840Z,39.94
2022-09-21T10:17:17.859Z,39.87
2022-09-21T10:19:45.302Z,40.29
2022-09-21T10:22:20.271Z,38.70
2022-09-21T10:24:51.503Z,39.12
2022-09-21T10:27:25.942Z,39.54
2022-09-21T10:29:52.654Z,38.36
2022-09-21T10:32:23.027Z,37.34
2022-09-21T10:35:05.324Z,36.29
2022-09-21T10:37:41.336Z,36.83
2022-09-21T10:40:28.691Z,36.83
2022-09-21T10:42:58.752Z,37.12
2022-09-21T10:45:26.832Z,36.95
2022-09-21T10:47:57.617Z,37.07
2022-09-21T10:50:35.028Z,37.41
2022-09-21T10:53:10.594Z,37.59
2022-09-21T10:55:58.477Z,36.99
2022-09-21T10:58:34.341Z,36.30
2022-09-21T11:01:31.950Z,36.11
2022-09-21T11:04:05.516Z,36.20
2022-09-21T11:06:39.314Z,35.47
2022-09-21T11:09:32.683Z,34.68
2022-09-21T11:12:25.905Z,36.01
2022-09-21T11:15:23.283Z,36.28
2022-09-21T11:18:14.975Z,36.62
2022-09-21T11:20:50.876Z,37.28
2022-09-21T11:23:23.526Z,37.81
2022-09-21T11:26:03.667Z,37.44
2022-09-21T11:28:49.027Z,37.74
2022-09-21T11:31:32.045Z,36.68
2022-09-21T11:34:27.068Z,37.34
2022-09-21T11:37:06.102Z,37.78
2022-09-21T11:40:07.647Z,37.73
2022-09-21T11:43:02.859Z,38.04
2022-09-21T11:45:51.037Z,38.21
2022-09-21T11:48:36.297Z,43.44
2022-09-21T11:51:45.092Z,48.63
2022-09-21T11:54:29.617Z,52.40
2022-09-21T11:57:02.340Z,54.66
2022-09-21T11:59:45.062Z,57.43
2022-09-21T12:02:37.272Z,58.43
2022-09-21T12:05:19.424Z,58.77
2022-09-21T12:08:28.480Z,61.93
2022-09-21T12:11:26.821Z,61.24
2022-09-21T12:14:28.471Z,59.98
2022-09-21T12:17:33.233Z,60.36
2022-09-21T12:20:24.917Z,62.00
2022-09-21T12:22:56.760Z,62.91
2022-09-21T12:25:23.634Z,60.87
2022-09-21T12:28:11.248Z,59.94
2022-09-21T12:30:41.709Z,60.02
2022-09-21T12:33:37.195Z,59.92
2022-09-21T12:36:21.062Z,59.78
2022-09-21T12:38:55.721Z,58.73
2022-09-21T12:41:32.327Z,54.29
2022-09-21T12:44:06.751Z,53.93
2022-09-21T12:46:40.307Z,51.35
2022-09-21T12:49:19.662Z,42.76
2022-09-21T12:51:57.347Z,42.62
2022-09-21T12:54:46.907Z,42.32
2022-09-21T12:58:04.533Z,43.44
2022-09-21T13:00:22.492Z,40.58
2022-09-21T13:03:07.053Z,39.22
2022-09-21T13:06:06.584Z,38.13
2022-09-21T13:08:38.717Z,38.63
2022-09-21T13:11:08.110Z,38.51
2022-09-21T13:13:45.296Z,40.94
2022-09-21T13:16:26.753Z,40.11
2022-09-21T13:19:13.241Z,38.98
2022-09-21T13:21:40.573Z,38.99
2022-09-21T13:24:24.720Z,39.51
2022-09-21T13:26:55.443Z,39.96
2022-09-21T13:29:22.237Z,40.88
2022-09-21T13:31:59.461Z,40.43
2022-09-21T13:34:29.081Z,40.59
2022-09-21T13:37:20.450Z,41.87
2022-09-21T13:40:02.561Z,41.19
2022-09-21T13:42:32.319Z,41.01
2022-09-21T13:45:06.702Z,40.81
2022-09-21T13:47:36.043Z,39.78
2022-09-21T13:50:16.800Z,40.55
2022-09-21T13:52:52.204Z,41.17
2022-09-21T13:55:42.146Z,41.06
2022-09-21T13:58:24.872Z,41.14
2022-09-21T14:01:03.059Z,41.86
2022-09-21T14:03:38.716Z,42.25
2022-09-21T14:06:10.260Z,41.31
2022-09-21T14:09:00.125Z,41.97
2022-09-21T14:11:34.307Z,42.24
2022-09-21T14:14:22.334Z,43.37
2022-09-21T14:16:58.110Z,43.68
2022-09-21T14:19:29.715Z,43.86
2022-09-21T14:22:08.418Z,44.80
2022-09-21T14:24:43.817Z,43.19
2022-09-21T14:27:45.941Z,40.95
2022-09-21T14:30:22.604Z,39.64
2022-09-21T14:33:12.477Z,39.62
2022-09-21T14:35:43.551Z,40.10
2022-09-21T14:38:51.877Z,40.07
2022-09-21T14:41:23.892Z,40.10
2022-09-21T14:43:54.331Z,40.97
2022-09-21T14:46:40.674Z,42.74
2022-09-21T14:49:19.915Z,44.02
2022-09-21T14:52:31.852Z,45.19
2022-09-21T14:55:01.093Z,44.68
2022-09-21T14:57:37.249Z,44.96
2022-09-21T15:00:22.107Z,44.79
2022-09-21T15:03:00.147Z,45.50
2022-09-21T15:05:44.060Z,46.00
2022-09-21T15:08:47.817Z,46.46
2022-09-21T15:11:27.258Z,45.61
2022-09-21T15:14:28.249Z,46.05
2022-09-21T15:16:54.822Z,46.18
2022-09-21T15:19:27.292Z,45.48
2022-09-21T15:22:15.507Z,43.94
2022-09-21T15:24:53.074Z,41.57
2022-09-21T15:27:24.231Z,41.62
2022-09-21T15:29:53.975Z,41.58
2022-09-21T15:32:38.939Z,41.95
2022-09-21T15:35:27.972Z,42.12
2022-09-21T15:37:56.346Z,42.30
2022-09-21T15:40:25.825Z,41.34
2022-09-21T15:43:19.356Z,42.15
2022-09-21T15:46:00.830Z,41.50
2022-09-21T15:48:41.212Z,41.92
2022-09-21T15:51:46.285Z,44.56
2022-09-21T15:54:21.999Z,42.56
2022-09-21T15:56:48.582Z,42.26
2022-09-21T15:59:20.758Z,42.45
2022-09-21T16:01:50.800Z,42.76
2022-09-21T16:04:23.106Z,43.21
2022-09-21T16:07:04.324Z,43.27
2022-09-21T16:09:45.859Z,42.93
2022-09-21T16:12:33.827Z,43.56
2022-09-21T16:15:11.060Z,43.64
2022-09-21T16:17:38.797Z,43.44
2022-09-21T16:20:23.313Z,44.57
2022-09-21T16:22:55.543Z,45.75
2022-09-21T16:25:37.633Z,46.81
2022-09-21T16:28:17.870Z,46.54
2022-09-21T16:30:51.720Z,47.71
2022-09-21T16:33:41.008Z,47.83
2022-09-21T16:36:25.685Z,48.89
2022-09-21T16:38:56.584Z,49.76
2022-09-21T16:41:26.263Z,50.99
2022-09-21T16:43:54.191Z,52.17
2022-09-21T16:46:20.957Z,53.42
2022-09-21T16:48:47.519Z,54.92
2022-09-21T16:51:22.348Z,55.86
2022-09-21T16:53:48.899Z,56.62
2022-09-21T16:56:16.327Z,57.12
2022-09-21T16:58:44.253Z,58.67
2022-09-21T17:01:16.360Z,59.19
2022-09-21T17:03:43.027Z,60.16
2022-09-21T17:06:18.306Z,60.04
2022-09-21T17:08:49.156Z,60.28
2022-09-21T17:11:20.401Z,60.77
2022-09-21T17:13:48.230Z,61.81
2022-09-21T17:16:19.046Z,64.35
2022-09-21T17:18:46.916Z,66.98
2022-09-21T17:21:14.944Z,69.77
2022-09-21T17:23:42.410Z,71.99
2022-09-21T17:26:17.979Z,73.90
2022-09-21T17:28:45.376Z,75.04
2022-09-21T17:31:14.125Z,76.72
2022-09-21T17:33:41.453Z,77.53
2022-09-21T17:36:13.730Z,78.24
2022-09-21T17:38:40.413Z,79.46
2022-09-21T17:41:18.251Z,80.15
2022-09-21T17:43:58.014Z,81.54
2022-09-21T17:46:27.800Z,82.49
2022-09-21T17:48:54.710Z,82.20
2022-09-21T17:51:40.254Z,82.29
2022-09-21T17:54:07.287Z,82.01
2022-09-21T17:56:51.744Z,80.43
2022-09-21T17:59:28.009Z,79.62
2022-09-21T18:01:59.466Z,79.39
2022-09-21T18:04:28.578Z,80.04
2022-09-21T18:06:55.506Z,80.00
2022-09-21T18:09:22.881Z,80.03
2022-09-21T18:11:55.171Z,80.22
2022-09-21T18:14:22.080Z,80.47
2022-09-21T18:17:00.841Z,81.00
2022-09-21T18:20:01.326Z,81.53
2022-09-21T18:22:57.501Z,81.99
2022-09-21T18:25:48.058Z,83.97
2022-09-21T18:28:40.709Z,85.01
2022-09-21T18:31:25.486Z,85.56
2022-09-21T18:34:00.400Z,85.25
2022-09-21T18:36:42.852Z,85.99
2022-09-21T18:39:40.722Z,85.77
2022-09-21T18:42:39.952Z,85.47
2022-09-21T18:45:23.618Z,85.19
2022-09-21T18:48:13.431Z,86.19
2022-09-21T18:51:25.319Z,86.34
2022-09-21T18:53:55.873Z,86.78
2022-09-21T18:56:24.224Z,88.08
2022-09-21T18:58:51.940Z,88.40
2022-09-21T19:01:22.102Z,90.28
2022-09-21T19:03:49.906Z,90.93
2022-09-21T19:06:34.986Z,93.10
2022-09-21T19:09:19.983Z,93.88
2022-09-21T19:12:20.693Z,93.75
2022-09-21T19:15:15.176Z,94.37
2022-09-21T19:17:51.062Z,94.68
2022-09-21T19:20:42.309Z,95.52
2022-09-21T19:23:24.148Z,95.95
2022-09-21T19:26:08.643Z,96.49
2022-09-21T19:28:46.857Z,96.94
2022-09-21T19:31:18.931Z,97.36
2022-09-21T19:33:50.509Z,98.44
2022-09-21T19:36:19.143Z,99.07
2022-09-21T19:38:46.003Z,99.52
2022-09-21T19:41:31.288Z,100.00
2022-09-21T19:44:10.068Z,100.00
2022-09-21T19:46:52.522Z,100.00
2022-09-21T19:49:20.859Z,100.00
2022-09-21T19:51:48.785Z,100.00
2022-09-21T19:54:39.217Z,100.00
2022-09-21T19:57:40.167Z,100.00
2022-09-21T20:00:10.318Z,100.00
2022-09-21T20:02:40.177Z,100.00
2022-09-21T20:05:12.995Z,100.00
2022-09-21T20:07:45.524Z,100.00
2022-09-21T20:10:29.841Z,100.00
2022-09-21T20:13:31.370Z,100.00
2022-09-21T20:16:38.000Z,100.00
2022-09-21T20:19:21.207Z,100.00
2022-09-21T20:21:58.890Z,100.00
2022-09-21T20:24:34.538Z,100.00
2022-09-21T20:27:03.226Z,100.00
2022-09-21T20:29:29.832Z,100.00
2022-09-21T20:31:56.542Z,100.00
2022-09-21T20:34:23.415Z,100.00
2022-09-21T20:36:50.239Z,100.00
2022-09-21T20:39:16.907Z,100.00
2022-09-21T20:41:43.544Z,100.00
2022-09-21T20:44:12.393Z,100.00
2022-09-21T20:46:38.967Z,100.00
2022-09-21T20:49:08.170Z,100.00
2022-09-21T20:51:36.135Z,100.00
2022-09-21T20:54:03.825Z,100.00
2022-09-21T20:56:30.904Z,100.00
2022-09-21T20:58:57.826Z,100.00
2022-09-21T21:01:24.966Z,100.00
2022-09-21T21:03:51.748Z,100.00
2022-09-21T21:06:21.176Z,100.00
2022-09-21T21:08:48.031Z,100.00
2022-09-21T21:11:14.619Z,100.00
2022-09-21T21:13:41.622Z,100.00
2022-09-21T21:16:12.166Z,100.00
2022-09-21T21:18:42.320Z,100.00
2022-09-21T21:21:09.493Z,100.00
2022-09-21T21:24:02.792Z,100.00
2022-09-21T21:26:50.178Z,100.00
2022-09-21T21:29:16.490Z,100.00
2022-09-21T21:31:43.132Z,100.00
2022-09-21T21:34:09.910Z,100.00
2022-09-21T21:36:36.473Z,100.00
2022-09-21T21:39:03.192Z,100.00
2022-09-21T21:41:31.505Z,100.00
2022-09-21T21:43:58.785Z,100.00
2022-09-21T21:46:25.901Z,100.00
2022-09-21T21:48:52.618Z,100.00
2022-09-21T21:51:19.411Z,100.00
2022-09-21T21:53:46.127Z,100.00
2022-09-21T21:56:16.990Z,100.00
2022-09-21T21:58:44.127Z,100.00
2022-09-21T22:01:22.234Z,100.00
2022-09-21T22:03:54.338Z,100.00
2022-09-21T22:06:21.768Z,100.00
2022-09-21T22:08:49.579Z,100.00
2022-09-21T22:11:17.681Z,100.00
2022-09-21T22:13:45.760Z,100.00
2022-09-21T22:16:18.989Z,100.00
2022-09-21T22:18:46.343Z,100.00
2022-09-21T22:21:17.474Z,100.00
2022-09-21T22:23:44.360Z,100.00
2022-09-21T22:26:15.870Z,100.00
2022-09-21T22:28:45.387Z,100.00
2022-09-21T22:31:15.115Z,100.00
2022-09-21T22:33:42.537Z,100.00
2022-09-21T22:36:14.551Z,100.00
2022-09-21T22:38:43.099Z,100.00
2022-09-21T22:41:12.766Z,100.00
2022-09-21T22:43:40.109Z,100.00
2022-09-21T22:46:07.600Z,100.00
2022-09-21T22:48:35.628Z,100.00
2022-09-21T22:51:03.154Z,100.00
2022-09-21T22:53:31.674Z,100.00
2022-09-21T22:56:04.659Z,100.00
2022-09-21T22:58:32.670Z,100.00
2022-09-21T23:01:10.618Z,100.00
2022-09-21T23:03:38.307Z,100.00
2022-09-21T23:06:07.122Z,100.00
2022-09-21T23:08:34.818Z,100.00
2022-09-21T23:11:10.651Z,100.00
2022-09-21T23:13:37.793Z,100.00
2022-09-21T23:16:06.028Z,100.00
2022-09-21T23:18:33.520Z,100.00
2022-09-21T23:21:02.232Z,100.00
2022-09-21T23:23:29.488Z,100.00
2022-09-21T23:26:05.115Z,100.00
2022-09-21T23:28:33.095Z,100.00
2022-09-21T23:31:02.071Z,100.00
2022-09-21T23:33:40.030Z,100.00
2022-09-21T23:36:08.867Z,100.00
2022-09-21T23:38:36.779Z,100.00
2022-09-21T23:41:12.485Z,100.00
2022-09-21T23:43:41.043Z,100.00
2022-09-21T23:46:09.733Z,100.00
2022-09-21T23:48:37.050Z,100.00
2022-09-21T23:51:04.329Z,100.00
2022-09-21T23:53:32.134Z,100.00
2022-09-21T23:55:59.109Z,100.00
2022-09-21T23:58:27.234Z,100.00
